createdAt,value
2018-09-26T00:00:25.359Z,927.56
2018-09-26T00:01:25.380Z,927.60
2018-09-26T00:02:25.449Z,927.65
2018-09-26T00:03:25.463Z,927.67
2018-09-26T00:04:25.529Z,927.68
2018-09-26T00:05:25.557Z,927.68
2018-09-26T00:06:25.911Z,927.70
2018-09-26T00:07:25.678Z,927.69
2018-09-26T00:08:25.738Z,927.69
2018-09-26T00:09:25.751Z,927.69
2018-09-26T00:10:25.785Z,927.69
2018-09-26T00:11:25.827Z,927.72
2018-09-26T00:12:25.852Z,927.65
2018-09-26T00:13:25.910Z,927.65
2018-09-26T00:14:25.966Z,927.68
2018-09-26T00:15:25.994Z,927.67
2018-09-26T00:16:26.051Z,927.72
2018-09-26T00:17:26.434Z,927.70
2018-09-26T00:18:26.152Z,927.77
2018-09-26T00:19:26.189Z,927.78
2018-09-26T00:20:26.256Z,927.84
2018-09-26T00:21:26.348Z,927.82
2018-09-26T00:22:26.394Z,927.84
2018-09-26T00:23:26.365Z,927.88
2018-09-26T00:24:26.410Z,927.91
2018-09-26T00:25:26.501Z,927.90
2018-09-26T00:26:26.534Z,927.87
2018-09-26T00:27:26.554Z,927.87
2018-09-26T00:28:26.571Z,927.92
2018-09-26T00:29:26.643Z,927.90
2018-09-26T00:30:26.701Z,927.93
2018-09-26T00:31:26.761Z,927.98
2018-09-26T00:32:26.820Z,927.99
2018-09-26T00:33:26.855Z,928.02
2018-09-26T00:34:26.875Z,928.06
2018-09-26T00:35:26.921Z,928.07
2018-09-26T00:36:26.978Z,928.12
2018-09-26T00:37:27.029Z,928.09
2018-09-26T00:38:27.123Z,928.13
2018-09-26T00:39:27.131Z,928.12
2018-09-26T00:40:27.161Z,928.17
2018-09-26T00:41:27.236Z,928.13
2018-09-26T00:42:27.220Z,928.14
2018-09-26T00:43:27.350Z,928.16
2018-09-26T00:44:27.328Z,928.18
2018-09-26T00:45:27.374Z,928.18
2018-09-26T00:46:27.430Z,928.20
2018-09-26T00:47:27.492Z,928.22
2018-09-26T00:48:27.505Z,928.25
2018-09-26T00:49:27.551Z,928.22
2018-09-26T00:50:27.617Z,928.25
2018-09-26T00:51:27.642Z,928.21
2018-09-26T00:52:27.678Z,928.19
2018-09-26T00:53:27.769Z,928.14
2018-09-26T00:54:27.786Z,928.14
2018-09-26T00:55:27.853Z,928.09
2018-09-26T00:56:27.879Z,928.09
2018-09-26T00:57:27.904Z,928.09
2018-09-26T00:58:27.973Z,928.13
2018-09-26T00:59:28.023Z,928.13
2018-09-26T01:00:28.041Z,928.11
2018-09-26T01:01:28.117Z,928.11
2018-09-26T01:02:28.173Z,928.14
2018-09-26T01:03:28.215Z,928.11
2018-09-26T01:04:28.256Z,928.11
2018-09-26T01:05:28.287Z,928.10
2018-09-26T01:06:28.347Z,928.09
2018-09-26T01:07:28.404Z,928.09
2018-09-26T01:08:28.399Z,928.09
2018-09-26T01:09:28.478Z,928.11
2018-09-26T01:10:28.519Z,928.13
2018-09-26T01:11:28.849Z,928.22
2018-09-26T01:12:28.602Z,928.18
2018-09-26T01:13:28.639Z,928.21
2018-09-26T01:14:28.699Z,928.27
2018-09-26T01:15:28.751Z,928.27
2018-09-26T01:16:28.780Z,928.29
2018-09-26T01:17:29.160Z,928.32
2018-09-26T01:18:28.874Z,928.29
2018-09-26T01:19:28.929Z,928.36
2018-09-26T01:20:29.016Z,928.35
2018-09-26T01:21:29.023Z,928.37
2018-09-26T01:22:29.062Z,928.39
2018-09-26T01:23:29.099Z,928.40
2018-09-26T01:24:29.158Z,928.38
2018-09-26T01:25:29.209Z,928.39
2018-09-26T01:26:29.235Z,928.44
2018-09-26T01:27:29.268Z,928.51
2018-09-26T01:28:29.348Z,928.47
2018-09-26T01:29:29.381Z,928.49
2018-09-26T01:30:29.476Z,928.48
2018-09-26T01:31:29.468Z,928.50
2018-09-26T01:32:29.523Z,928.53
2018-09-26T01:33:29.817Z,928.51
2018-09-26T01:34:29.607Z,928.54
2018-09-26T01:35:29.661Z,928.56
2018-09-26T01:36:29.701Z,928.53
2018-09-26T01:37:29.710Z,928.54
2018-09-26T01:38:29.791Z,928.52
2018-09-26T01:39:29.832Z,928.53
2018-09-26T01:40:29.919Z,928.49
2018-09-26T01:41:30.008Z,928.50
2018-09-26T01:42:29.966Z,928.51
2018-09-26T01:43:30.014Z,928.52
2018-09-26T01:44:30.123Z,928.54
2018-09-26T01:45:30.105Z,928.53
2018-09-26T01:46:30.154Z,928.47
2018-09-26T01:47:30.192Z,928.54
2018-09-26T01:48:30.252Z,928.51
2018-09-26T01:49:30.270Z,928.47
2018-09-26T01:50:30.629Z,928.49
2018-09-26T01:51:30.404Z,928.46
2018-09-26T01:52:30.400Z,928.44
2018-09-26T01:53:30.462Z,928.46
2018-09-26T01:54:30.525Z,928.47
2018-09-26T01:55:30.576Z,928.51
2018-09-26T01:56:30.607Z,928.51
2018-09-26T01:57:30.647Z,928.51
2018-09-26T01:58:30.692Z,928.46
2018-09-26T01:59:30.735Z,928.49
2018-09-26T02:00:30.798Z,928.46
2018-09-26T02:01:31.063Z,928.45
2018-09-26T02:02:30.858Z,928.45
2018-09-26T02:03:30.969Z,928.41
2018-09-26T02:04:30.962Z,928.36
2018-09-26T02:05:30.997Z,928.39
2018-09-26T02:06:31.027Z,928.36
2018-09-26T02:07:31.147Z,928.40
2018-09-26T02:08:31.152Z,928.39
2018-09-26T02:09:31.183Z,928.35
2018-09-26T02:10:31.240Z,928.33
2018-09-26T02:11:31.627Z,928.31
2018-09-26T02:12:31.313Z,928.31
2018-09-26T02:13:31.370Z,928.28
2018-09-26T02:14:31.426Z,928.28
2018-09-26T02:15:31.445Z,928.28
2018-09-26T02:16:31.516Z,928.23
2018-09-26T02:17:31.553Z,928.19
2018-09-26T02:18:31.585Z,928.22
2018-09-26T02:19:31.632Z,928.19
2018-09-26T02:20:31.686Z,928.21
2018-09-26T02:21:31.741Z,928.17
2018-09-26T02:22:31.778Z,928.17
2018-09-26T02:23:31.850Z,928.15
2018-09-26T02:24:31.875Z,928.17
2018-09-26T02:25:31.896Z,928.11
2018-09-26T02:26:31.962Z,928.14
2018-09-26T02:27:31.997Z,928.16
2018-09-26T02:28:32.047Z,928.13
2018-09-26T02:29:32.105Z,928.13
2018-09-26T02:30:32.131Z,928.08
2018-09-26T02:31:32.190Z,928.09
2018-09-26T02:32:32.228Z,928.14
2018-09-26T02:33:32.561Z,928.10
2018-09-26T02:34:32.327Z,928.09
2018-09-26T02:35:32.361Z,928.11
2018-09-26T02:36:32.491Z,928.08
2018-09-26T02:37:32.461Z,928.08
2018-09-26T02:38:32.551Z,928.10
2018-09-26T02:39:32.561Z,928.08
2018-09-26T02:40:32.599Z,928.09
2018-09-26T02:41:32.626Z,928.11
2018-09-26T02:42:32.694Z,928.08
2018-09-26T02:43:33.048Z,928.09
2018-09-26T02:44:32.812Z,928.05
2018-09-26T02:45:32.834Z,928.08
2018-09-26T02:46:32.863Z,928.06
2018-09-26T02:47:32.913Z,928.06
2018-09-26T02:48:32.966Z,928.03
2018-09-26T02:49:33.004Z,928.06
2018-09-26T02:50:33.051Z,927.98
2018-09-26T02:51:33.101Z,928.00
2018-09-26T02:52:33.143Z,927.96
2018-09-26T02:53:33.440Z,927.91
2018-09-26T02:54:33.224Z,927.89
2018-09-26T02:55:33.292Z,927.86
2018-09-26T02:56:33.346Z,927.89
2018-09-26T02:57:33.374Z,927.86
2018-09-26T02:58:33.422Z,927.82
2018-09-26T02:59:33.470Z,927.84
2018-09-26T03:00:33.490Z,927.82
2018-09-26T03:01:33.534Z,927.81
2018-09-26T03:02:33.589Z,927.81
2018-09-26T03:03:33.638Z,927.81
2018-09-26T03:04:33.681Z,927.79
2018-09-26T03:05:33.719Z,927.84
2018-09-26T03:06:33.777Z,927.79
2018-09-26T03:07:33.829Z,927.82
2018-09-26T03:08:33.876Z,927.86
2018-09-26T03:09:33.930Z,927.87
2018-09-26T03:10:33.940Z,927.84
2018-09-26T03:11:34.003Z,927.88
2018-09-26T03:12:34.068Z,927.90
2018-09-26T03:13:34.093Z,927.89
2018-09-26T03:14:34.143Z,927.90
2018-09-26T03:15:34.192Z,927.91
2018-09-26T03:16:34.228Z,927.98
2018-09-26T03:17:34.296Z,927.98
2018-09-26T03:18:34.353Z,928.07
2018-09-26T03:19:34.387Z,928.03
2018-09-26T03:20:34.430Z,928.03
2018-09-26T03:21:34.463Z,928.03
2018-09-26T03:22:34.515Z,928.02
2018-09-26T03:23:34.553Z,927.98
2018-09-26T03:24:34.591Z,928.02
2018-09-26T03:25:34.647Z,927.96
2018-09-26T03:26:34.687Z,927.92
2018-09-26T03:27:34.746Z,927.93
2018-09-26T03:28:34.766Z,927.88
2018-09-26T03:29:34.854Z,927.91
2018-09-26T03:30:34.880Z,927.92
2018-09-26T03:31:34.921Z,927.90
2018-09-26T03:32:34.957Z,927.88
2018-09-26T03:33:35.011Z,927.86
2018-09-26T03:34:35.048Z,927.89
2018-09-26T03:35:35.119Z,927.82
2018-09-26T03:36:35.188Z,927.83
2018-09-26T03:37:35.204Z,927.80
2018-09-26T03:38:35.256Z,927.79
2018-09-26T03:39:35.311Z,927.80
2018-09-26T03:40:35.337Z,927.76
2018-09-26T03:41:35.392Z,927.73
2018-09-26T03:42:35.434Z,927.73
2018-09-26T03:43:35.457Z,927.71
2018-09-26T03:44:35.533Z,927.65
2018-09-26T03:45:35.548Z,927.65
2018-09-26T03:46:35.609Z,927.60
2018-09-26T03:47:35.657Z,927.68
2018-09-26T03:48:35.713Z,927.67
2018-09-26T03:49:35.751Z,927.65
2018-09-26T03:50:35.788Z,927.64
2018-09-26T03:51:35.849Z,927.62
2018-09-26T03:52:35.876Z,927.61
2018-09-26T03:53:35.943Z,927.56
2018-09-26T03:54:36.030Z,927.57
2018-09-26T03:55:36.018Z,927.53
2018-09-26T03:56:36.074Z,927.47
2018-09-26T03:57:36.121Z,927.44
2018-09-26T03:58:36.170Z,927.45
2018-09-26T03:59:36.189Z,927.47
2018-09-26T04:00:36.294Z,927.49
2018-09-26T04:01:36.333Z,927.44
2018-09-26T04:02:36.368Z,927.43
2018-09-26T04:03:36.642Z,927.43
2018-09-26T04:04:36.418Z,927.41
2018-09-26T04:05:36.484Z,927.39
2018-09-26T04:06:36.542Z,927.41
2018-09-26T04:07:36.569Z,927.41
2018-09-26T04:08:36.625Z,927.41
2018-09-26T04:09:36.640Z,927.41
2018-09-26T04:10:36.699Z,927.32
2018-09-26T04:11:36.745Z,927.30
2018-09-26T04:12:36.958Z,927.24
2018-09-26T04:13:37.154Z,927.21
2018-09-26T04:14:36.877Z,927.23
2018-09-26T04:15:37.089Z,927.18
2018-09-26T04:16:36.988Z,927.22
2018-09-26T04:17:37.036Z,927.20
2018-09-26T04:18:37.085Z,927.24
2018-09-26T04:19:37.170Z,927.30
2018-09-26T04:20:37.177Z,927.32
2018-09-26T04:21:37.221Z,927.36
2018-09-26T04:22:37.265Z,927.35
2018-09-26T04:23:37.608Z,927.35
2018-09-26T04:24:37.397Z,927.29
2018-09-26T04:25:37.400Z,927.29
2018-09-26T04:26:37.576Z,927.31
2018-09-26T04:27:37.542Z,927.32
2018-09-26T04:28:37.517Z,927.32
2018-09-26T04:29:37.580Z,927.33
2018-09-26T04:30:37.624Z,927.31
2018-09-26T04:31:37.672Z,927.31
2018-09-26T04:32:37.761Z,927.30
2018-09-26T04:33:37.851Z,927.33
2018-09-26T04:34:38.114Z,927.31
2018-09-26T04:35:37.870Z,927.34
2018-09-26T04:36:37.927Z,927.31
2018-09-26T04:37:37.945Z,927.33
2018-09-26T04:38:38.071Z,927.29
2018-09-26T04:39:38.080Z,927.32
2018-09-26T04:40:38.077Z,927.32
2018-09-26T04:41:38.137Z,927.29
2018-09-26T04:42:38.167Z,927.30
2018-09-26T04:43:38.208Z,927.28
2018-09-26T04:44:38.256Z,927.26
2018-09-26T04:45:38.283Z,927.27
2018-09-26T04:46:38.349Z,927.25
2018-09-26T04:47:38.380Z,927.27
2018-09-26T04:48:38.454Z,927.25
2018-09-26T04:49:38.530Z,927.24
2018-09-26T04:50:38.635Z,927.22
2018-09-26T04:51:38.874Z,927.20
2018-09-26T04:52:38.620Z,927.21
2018-09-26T04:53:38.710Z,927.18
2018-09-26T04:54:38.707Z,927.17
2018-09-26T04:55:38.773Z,927.18
2018-09-26T04:56:38.850Z,927.15
2018-09-26T04:57:38.858Z,927.15
2018-09-26T04:58:38.953Z,927.11
2018-09-26T04:59:38.968Z,927.09
2018-09-26T05:00:38.976Z,927.08
2018-09-26T05:01:39.029Z,927.07
2018-09-26T05:02:39.076Z,927.09
2018-09-26T05:03:39.131Z,927.10
2018-09-26T05:04:39.172Z,927.15
2018-09-26T05:05:39.274Z,927.12
2018-09-26T05:06:39.282Z,927.13
2018-09-26T05:07:39.671Z,927.15
2018-09-26T05:08:39.405Z,927.14
2018-09-26T05:09:39.457Z,927.10
2018-09-26T05:10:39.454Z,927.09
2018-09-26T05:11:39.472Z,927.05
2018-09-26T05:12:39.532Z,927.03
2018-09-26T05:13:39.572Z,926.97
2018-09-26T05:14:39.697Z,926.92
2018-09-26T05:15:39.690Z,926.94
2018-09-26T05:16:39.713Z,926.94
2018-09-26T05:17:39.779Z,926.90
2018-09-26T05:18:40.121Z,926.88
2018-09-26T05:19:39.851Z,926.93
2018-09-26T05:20:39.898Z,926.93
2018-09-26T05:21:39.964Z,926.92
2018-09-26T05:22:40.045Z,926.95
2018-09-26T05:23:40.021Z,926.96
2018-09-26T05:24:40.083Z,926.96
2018-09-26T05:25:40.137Z,926.98
2018-09-26T05:26:40.175Z,926.96
2018-09-26T05:27:40.231Z,926.98
2018-09-26T05:28:40.273Z,926.97
2018-09-26T05:29:40.313Z,926.96
2018-09-26T05:30:40.366Z,926.97
2018-09-26T05:31:40.417Z,926.96
2018-09-26T05:32:40.455Z,926.97
2018-09-26T05:33:40.483Z,926.99
2018-09-26T05:34:40.532Z,927.00
2018-09-26T05:35:40.600Z,927.01
2018-09-26T05:36:40.645Z,926.99
2018-09-26T05:37:40.690Z,927.02
2018-09-26T05:38:40.722Z,927.07
2018-09-26T05:39:40.754Z,927.10
2018-09-26T05:40:40.796Z,927.12
2018-09-26T05:41:40.901Z,927.13
2018-09-26T05:42:40.916Z,927.16
2018-09-26T05:43:40.953Z,927.14
2018-09-26T05:44:40.988Z,927.15
2018-09-26T05:45:41.033Z,927.20
2018-09-26T05:46:41.108Z,927.15
2018-09-26T05:47:41.144Z,927.21
2018-09-26T05:48:41.168Z,927.16
2018-09-26T05:49:41.226Z,927.16
2018-09-26T05:50:41.289Z,927.12
2018-09-26T05:51:41.326Z,927.11
2018-09-26T05:52:41.675Z,927.12
2018-09-26T05:53:41.454Z,927.10
2018-09-26T05:54:41.443Z,927.09
2018-09-26T05:55:41.501Z,927.04
2018-09-26T05:56:41.550Z,927.07
2018-09-26T05:57:41.576Z,927.03
2018-09-26T05:58:41.646Z,927.04
2018-09-26T05:59:41.758Z,927.01
2018-09-26T06:00:41.741Z,927.02
2018-09-26T06:01:41.787Z,926.99
2018-09-26T06:02:41.832Z,926.97
2018-09-26T06:03:41.858Z,926.94
2018-09-26T06:04:41.903Z,926.93
2018-09-26T06:05:41.947Z,926.96
2018-09-26T06:06:41.994Z,926.91
2018-09-26T06:07:42.055Z,926.89
2018-09-26T06:08:42.092Z,926.91
2018-09-26T06:09:42.126Z,926.90
2018-09-26T06:10:42.166Z,926.89
2018-09-26T06:11:42.223Z,926.85
2018-09-26T06:12:42.354Z,926.86
2018-09-26T06:13:42.317Z,926.85
2018-09-26T06:14:42.370Z,926.87
2018-09-26T06:15:42.416Z,926.84
2018-09-26T06:16:42.464Z,926.83
2018-09-26T06:17:42.521Z,926.82
2018-09-26T06:18:42.865Z,926.81
2018-09-26T06:19:42.658Z,926.78
2018-09-26T06:20:42.643Z,926.75
2018-09-26T06:21:42.685Z,926.73
2018-09-26T06:22:42.768Z,926.71
2018-09-26T06:23:43.125Z,926.65
2018-09-26T06:24:42.850Z,926.67
2018-09-26T06:25:42.917Z,926.60
2018-09-26T06:26:42.921Z,926.58
2018-09-26T06:27:42.978Z,926.52
2018-09-26T06:28:43.010Z,926.53
2018-09-26T06:29:43.050Z,926.52
2018-09-26T06:30:43.131Z,926.48
2018-09-26T06:31:43.127Z,926.53
2018-09-26T06:32:43.177Z,926.56
2018-09-26T06:33:43.231Z,926.59
2018-09-26T06:34:43.535Z,926.59
2018-09-26T06:35:43.369Z,926.56
2018-09-26T06:36:43.363Z,926.58
2018-09-26T06:37:43.455Z,926.59
2018-09-26T06:38:43.476Z,926.53
2018-09-26T06:39:43.506Z,926.56
2018-09-26T06:40:43.828Z,926.48
2018-09-26T06:41:43.592Z,926.48
2018-09-26T06:42:43.635Z,926.47
2018-09-26T06:43:43.724Z,926.46
2018-09-26T06:44:43.758Z,926.51
2018-09-26T06:45:43.750Z,926.49
2018-09-26T06:46:44.077Z,926.49
2018-09-26T06:47:43.884Z,926.46
2018-09-26T06:48:43.901Z,926.50
2018-09-26T06:49:43.951Z,926.48
2018-09-26T06:50:44.009Z,926.52
2018-09-26T06:51:44.057Z,926.51
2018-09-26T06:52:44.137Z,926.54
2018-09-26T06:53:44.151Z,926.51
2018-09-26T06:54:44.232Z,926.53
2018-09-26T06:55:44.230Z,926.54
2018-09-26T06:56:44.293Z,926.56
2018-09-26T06:57:44.582Z,926.56
2018-09-26T06:58:44.366Z,926.57
2018-09-26T06:59:44.432Z,926.59
2018-09-26T07:00:44.465Z,926.59
2018-09-26T07:01:44.513Z,926.57
2018-09-26T07:02:44.583Z,926.58
2018-09-26T07:03:44.597Z,926.58
2018-09-26T07:04:44.674Z,926.57
2018-09-26T07:05:44.686Z,926.54
2018-09-26T07:06:44.745Z,926.51
2018-09-26T07:07:45.020Z,926.52
2018-09-26T07:08:44.826Z,926.51
2018-09-26T07:09:44.873Z,926.49
2018-09-26T07:10:44.929Z,926.45
2018-09-26T07:11:44.959Z,926.42
2018-09-26T07:12:45.002Z,926.46
2018-09-26T07:13:45.046Z,926.44
2018-09-26T07:14:45.088Z,926.49
2018-09-26T07:15:45.187Z,926.48
2018-09-26T07:16:45.182Z,926.51
2018-09-26T07:17:45.246Z,926.56
2018-09-26T07:18:45.658Z,926.58
2018-09-26T07:19:45.337Z,926.54
2018-09-26T07:20:45.432Z,926.54
2018-09-26T07:21:45.400Z,926.53
2018-09-26T07:22:45.481Z,926.48
2018-09-26T07:23:45.543Z,926.43
2018-09-26T07:24:45.529Z,926.40
2018-09-26T07:25:45.582Z,926.36
2018-09-26T07:26:45.670Z,926.36
2018-09-26T07:27:45.690Z,926.29
2018-09-26T07:28:45.736Z,926.28
2018-09-26T07:29:45.782Z,926.27
2018-09-26T07:30:45.799Z,926.24
2018-09-26T07:31:45.857Z,926.27
2018-09-26T07:32:45.900Z,926.32
2018-09-26T07:33:45.935Z,926.31
2018-09-26T07:34:46.309Z,926.34
2018-09-26T07:35:46.043Z,926.36
2018-09-26T07:36:46.151Z,926.45
2018-09-26T07:37:46.157Z,926.48
2018-09-26T07:38:46.178Z,926.50
2018-09-26T07:39:46.218Z,926.53
2018-09-26T07:40:46.290Z,926.60
2018-09-26T07:41:46.318Z,926.58
2018-09-26T07:42:46.392Z,926.55
2018-09-26T07:43:46.387Z,926.56
2018-09-26T07:44:46.460Z,926.57
2018-09-26T07:45:46.850Z,926.60
2018-09-26T07:46:46.595Z,926.63
2018-09-26T07:47:46.602Z,926.60
2018-09-26T07:48:46.679Z,926.62
2018-09-26T07:49:46.714Z,926.62
2018-09-26T07:50:46.760Z,926.62
2018-09-26T07:51:46.781Z,926.65
2018-09-26T07:52:46.833Z,926.66
2018-09-26T07:53:46.849Z,926.67
2018-09-26T07:54:46.913Z,926.66
2018-09-26T07:55:46.941Z,926.67
2018-09-26T07:56:47.237Z,926.65
2018-09-26T07:57:47.028Z,926.64
2018-09-26T07:58:47.091Z,926.59
2018-09-26T07:59:47.120Z,926.60
2018-09-26T08:00:47.151Z,926.58
2018-09-26T08:01:47.225Z,926.57
2018-09-26T08:02:47.273Z,926.56
2018-09-26T08:03:47.319Z,926.62
2018-09-26T08:04:47.358Z,926.60
2018-09-26T08:05:47.452Z,926.62
2018-09-26T08:06:47.424Z,926.66
2018-09-26T08:07:47.540Z,926.69
2018-09-26T08:08:47.545Z,926.68
2018-09-26T08:09:47.585Z,926.72
2018-09-26T08:10:47.631Z,926.72
2018-09-26T08:11:47.807Z,926.74
2018-09-26T08:12:47.703Z,926.76
2018-09-26T08:13:47.769Z,926.78
2018-09-26T08:14:47.823Z,926.78
2018-09-26T08:15:47.853Z,926.81
2018-09-26T08:16:47.917Z,926.84
2018-09-26T08:17:47.948Z,926.87
2018-09-26T08:18:47.975Z,926.86
2018-09-26T08:19:48.032Z,926.88
2018-09-26T08:20:48.086Z,926.91
2018-09-26T08:21:48.124Z,926.88
2018-09-26T08:22:48.168Z,926.85
2018-09-26T08:23:48.479Z,926.88
2018-09-26T08:24:48.249Z,926.88
2018-09-26T08:25:48.302Z,926.85
2018-09-26T08:26:48.363Z,926.88
2018-09-26T08:27:48.388Z,926.88
2018-09-26T08:28:48.451Z,926.87
2018-09-26T08:29:48.795Z,926.84
2018-09-26T08:30:48.525Z,926.83
2018-09-26T08:31:48.563Z,926.79
2018-09-26T08:32:48.611Z,926.81
2018-09-26T08:33:48.666Z,926.79
2018-09-26T08:34:48.690Z,926.83
2018-09-26T08:35:48.762Z,926.84
2018-09-26T08:36:48.834Z,926.82
2018-09-26T08:37:48.847Z,926.83
2018-09-26T08:38:48.883Z,926.83
2018-09-26T08:39:48.930Z,926.83
2018-09-26T08:40:48.965Z,926.85
2018-09-26T08:41:49.025Z,926.83
2018-09-26T08:42:49.070Z,926.85
2018-09-26T08:43:49.128Z,926.81
2018-09-26T08:44:49.390Z,926.78
2018-09-26T08:45:49.194Z,926.81
2018-09-26T08:46:49.227Z,926.79
2018-09-26T08:47:49.281Z,926.83
2018-09-26T08:48:49.336Z,926.81
2018-09-26T08:49:49.391Z,926.79
2018-09-26T08:50:49.418Z,926.84
2018-09-26T08:51:49.483Z,926.86
2018-09-26T08:52:49.506Z,926.88
2018-09-26T08:53:49.576Z,926.94
2018-09-26T08:54:49.588Z,926.93
2018-09-26T08:55:49.647Z,927.00
2018-09-26T08:56:49.721Z,926.97
2018-09-26T08:57:49.737Z,926.95
2018-09-26T08:58:49.787Z,926.95
2018-09-26T08:59:49.839Z,926.97
2018-09-26T09:00:50.171Z,926.96
2018-09-26T09:01:49.922Z,926.95
2018-09-26T09:02:49.969Z,926.97
2018-09-26T09:03:50.013Z,926.95
2018-09-26T09:04:50.034Z,926.92
2018-09-26T09:05:50.075Z,926.94
2018-09-26T09:06:50.148Z,926.96
2018-09-26T09:07:50.192Z,926.98
2018-09-26T09:08:50.236Z,927.01
2018-09-26T09:09:50.269Z,926.96
2018-09-26T09:10:50.623Z,926.99
2018-09-26T09:11:50.353Z,927.01
2018-09-26T09:12:50.396Z,927.01
2018-09-26T09:13:50.464Z,927.03
2018-09-26T09:14:50.612Z,927.00
2018-09-26T09:15:50.545Z,926.94
2018-09-26T09:16:50.602Z,926.95
2018-09-26T09:17:50.694Z,926.99
2018-09-26T09:18:50.665Z,927.01
2018-09-26T09:19:50.729Z,926.98
2018-09-26T09:20:51.071Z,927.01
2018-09-26T09:21:50.814Z,926.96
2018-09-26T09:22:50.845Z,926.92
2018-09-26T09:23:50.907Z,926.96
2018-09-26T09:24:50.921Z,926.95
2018-09-26T09:25:51.003Z,926.93
2018-09-26T09:26:51.029Z,926.95
2018-09-26T09:27:51.071Z,926.96
2018-09-26T09:28:51.119Z,926.99
2018-09-26T09:29:51.160Z,926.99
2018-09-26T09:30:51.218Z,927.02
2018-09-26T09:31:51.272Z,926.98
2018-09-26T09:32:51.347Z,926.96
2018-09-26T09:33:51.335Z,926.96
2018-09-26T09:34:51.397Z,926.93
2018-09-26T09:35:51.460Z,926.93
2018-09-26T09:36:51.482Z,926.93
2018-09-26T09:37:51.550Z,926.94
2018-09-26T09:38:51.607Z,926.95
2018-09-26T09:39:51.661Z,926.90
2018-09-26T09:40:51.670Z,926.90
2018-09-26T09:41:51.720Z,926.86
2018-09-26T09:42:51.759Z,926.85
2018-09-26T09:43:51.831Z,926.84
2018-09-26T09:44:51.845Z,926.84
2018-09-26T09:45:51.883Z,926.82
2018-09-26T09:46:51.952Z,926.86
2018-09-26T09:47:52.025Z,926.91
2018-09-26T09:48:52.018Z,926.91
2018-09-26T09:49:52.084Z,926.97
2018-09-26T09:50:52.114Z,926.94
2018-09-26T09:51:52.170Z,927.00
2018-09-26T09:52:52.520Z,926.98
2018-09-26T09:53:52.268Z,927.00
2018-09-26T09:54:52.320Z,926.95
2018-09-26T09:55:52.371Z,927.00
2018-09-26T09:56:52.398Z,926.96
2018-09-26T09:57:52.463Z,926.96
2018-09-26T09:58:52.501Z,927.01
2018-09-26T09:59:52.551Z,927.03
2018-09-26T10:00:52.569Z,927.06
2018-09-26T10:01:52.621Z,927.13
2018-09-26T10:02:52.826Z,927.14
2018-09-26T10:03:53.061Z,927.14
2018-09-26T10:04:52.816Z,927.19
2018-09-26T10:05:52.812Z,927.24
2018-09-26T10:06:52.864Z,927.25
2018-09-26T10:07:52.922Z,927.26
2018-09-26T10:08:53.009Z,927.27
2018-09-26T10:09:53.017Z,927.28
2018-09-26T10:10:53.060Z,927.23
2018-09-26T10:11:53.116Z,927.26
2018-09-26T10:12:53.138Z,927.26
2018-09-26T10:13:53.196Z,927.24
2018-09-26T10:14:53.248Z,927.26
2018-09-26T10:15:53.294Z,927.20
2018-09-26T10:16:53.340Z,927.19
2018-09-26T10:17:53.388Z,927.18
2018-09-26T10:18:53.432Z,927.21
2018-09-26T10:19:53.496Z,927.18
2018-09-26T10:20:53.533Z,927.19
2018-09-26T10:21:53.577Z,927.18
2018-09-26T10:22:53.647Z,927.22
2018-09-26T10:23:53.961Z,927.27
2018-09-26T10:24:53.765Z,927.22
2018-09-26T10:25:53.778Z,927.24
2018-09-26T10:26:53.834Z,927.25
2018-09-26T10:27:53.875Z,927.27
2018-09-26T10:28:54.222Z,927.25
2018-09-26T10:29:53.979Z,927.30
2018-09-26T10:30:54.071Z,927.26
2018-09-26T10:31:54.082Z,927.28
2018-09-26T10:32:54.136Z,927.27
2018-09-26T10:33:54.432Z,927.28
2018-09-26T10:34:54.256Z,927.27
2018-09-26T10:35:54.296Z,927.26
2018-09-26T10:36:54.333Z,927.33
2018-09-26T10:37:54.371Z,927.30
2018-09-26T10:38:54.445Z,927.33
2018-09-26T10:39:54.489Z,927.32
2018-09-26T10:40:54.598Z,927.31
2018-09-26T10:41:54.625Z,927.31
2018-09-26T10:42:54.658Z,927.33
2018-09-26T10:43:54.682Z,927.31
2018-09-26T10:44:54.724Z,927.41
2018-09-26T10:45:54.782Z,927.39
2018-09-26T10:46:54.868Z,927.40
2018-09-26T10:47:54.902Z,927.36
2018-09-26T10:48:54.941Z,927.38
2018-09-26T10:49:55.019Z,927.45
2018-09-26T10:50:55.051Z,927.46
2018-09-26T10:51:55.129Z,927.46
2018-09-26T10:52:55.144Z,927.46
2018-09-26T10:53:55.227Z,927.49
2018-09-26T10:54:55.267Z,927.51
2018-09-26T10:55:55.346Z,927.51
2018-09-26T10:56:55.373Z,927.57
2018-09-26T10:57:55.434Z,927.61
2018-09-26T10:58:55.463Z,927.56
2018-09-26T10:59:55.859Z,927.61
2018-09-26T11:00:55.589Z,927.59
2018-09-26T11:01:55.663Z,927.65
2018-09-26T11:02:55.720Z,927.61
2018-09-26T11:03:55.749Z,927.63
2018-09-26T11:04:56.049Z,927.68
2018-09-26T11:05:55.906Z,927.64
2018-09-26T11:06:55.905Z,927.67
2018-09-26T11:07:56.010Z,927.64
2018-09-26T11:08:56.016Z,927.65
2018-09-26T11:09:56.101Z,927.62
2018-09-26T11:10:56.120Z,927.66
2018-09-26T11:11:56.193Z,927.62
2018-09-26T11:12:56.253Z,927.68
2018-09-26T11:13:56.286Z,927.66
2018-09-26T11:14:56.354Z,927.61
2018-09-26T11:15:56.453Z,927.60
2018-09-26T11:16:56.450Z,927.63
2018-09-26T11:17:56.544Z,927.66
2018-09-26T11:18:56.576Z,927.58
2018-09-26T11:19:56.605Z,927.57
2018-09-26T11:20:56.688Z,927.54
2018-09-26T11:21:56.734Z,927.57
2018-09-26T11:22:56.789Z,927.56
2018-09-26T11:23:56.824Z,927.55
2018-09-26T11:24:56.892Z,927.54
2018-09-26T11:25:56.946Z,927.51
2018-09-26T11:26:57.053Z,927.52
2018-09-26T11:27:57.060Z,927.48
2018-09-26T11:28:57.095Z,927.48
2018-09-26T11:29:57.188Z,927.48
2018-09-26T11:30:57.233Z,927.46
2018-09-26T11:31:57.261Z,927.51
2018-09-26T11:32:57.355Z,927.47
2018-09-26T11:33:57.375Z,927.46
2018-09-26T11:34:57.430Z,927.45
2018-09-26T11:35:57.521Z,927.47
2018-09-26T11:36:57.561Z,927.46
2018-09-26T11:37:57.620Z,927.47
2018-09-26T11:38:57.678Z,927.43
2018-09-26T11:39:57.733Z,927.44
2018-09-26T11:40:57.841Z,927.51
2018-09-26T11:41:57.846Z,927.48
2018-09-26T11:42:57.932Z,927.47
2018-09-26T11:43:57.978Z,927.49
2018-09-26T11:44:57.994Z,927.49
2018-09-26T11:45:58.047Z,927.50
2018-09-26T11:46:58.123Z,927.47
2018-09-26T11:47:58.168Z,927.46
2018-09-26T11:48:58.216Z,927.42
2018-09-26T11:49:58.293Z,927.44
2018-09-26T11:50:58.330Z,927.39
2018-09-26T11:51:58.449Z,927.44
2018-09-26T11:52:58.455Z,927.43
2018-09-26T11:53:58.517Z,927.42
2018-09-26T11:54:58.617Z,927.41
2018-09-26T11:55:58.784Z,927.43
2018-09-26T11:56:58.703Z,927.41
2018-09-26T11:57:58.783Z,927.37
2018-09-26T11:58:58.802Z,927.33
2018-09-26T11:59:58.852Z,927.36
2018-09-26T12:00:58.916Z,927.33
2018-09-26T12:01:58.947Z,927.34
2018-09-26T12:02:59.018Z,927.36
2018-09-26T12:03:59.071Z,927.34
2018-09-26T12:04:59.146Z,927.32
2018-09-26T12:05:59.202Z,927.28
2018-09-26T12:06:59.329Z,927.26
2018-09-26T12:07:59.282Z,927.23
2018-09-26T12:08:59.366Z,927.21
2018-09-26T12:09:59.430Z,927.19
2018-09-26T12:10:59.478Z,927.19
2018-09-26T12:11:59.551Z,927.19
2018-09-26T12:12:59.603Z,927.21
2018-09-26T12:13:59.710Z,927.22
2018-09-26T12:14:59.720Z,927.18
2018-09-26T12:15:59.773Z,927.25
2018-09-26T12:16:59.802Z,927.16
2018-09-26T12:17:59.898Z,927.20
2018-09-26T12:18:59.957Z,927.20
2018-09-26T12:20:00.020Z,927.25
2018-09-26T12:21:00.080Z,927.18
2018-09-26T12:22:00.109Z,927.23
2018-09-26T12:23:00.163Z,927.22
2018-09-26T12:24:00.279Z,927.22
2018-09-26T12:25:00.308Z,927.19
2018-09-26T12:26:00.361Z,927.11
2018-09-26T12:27:00.412Z,927.20
2018-09-26T12:28:00.450Z,927.13
2018-09-26T12:29:00.577Z,927.09